Flight Track Log - Related Links

Times and Time Zones

All times are in EST time to prevent confusion due to time zone crossing. See the SKW5515 flight status page for this flight to view local times or setup timezone preferences in your user account.

Time Position Orientation Groundspeed Altitude Reporting Facility
EST Latitude Longitude Course Direction KTS MPH feet Rate Location/Type
Tue 12:18:02 AM 39.9333 -104.6833 346° North 193 222 7,400  Level Denver TRACON
Tue 12:18:56 AM 39.9833 -104.6667 14° North 230 265 8,600 1,684 Climbing Denver TRACON
Tue 12:19:56 AM 40.0667 -104.6667 360° North 275 316 10,600 1,600 Climbing Denver TRACON
Tue 12:20:00 AM 40.1021 -104.9465 346° North  Level Estimated
Tue 12:20:56 AM 40.1500 -104.6833 351° North 314 361 11,800  Level Denver TRACON
Tue 12:21:00 AM 40.1821 -105.0380 346° North  Level Estimated
Tue 12:22:00 AM 40.2621 -105.1298 348° North  Level Estimated
Tue 12:22:02 AM 40.2333 -104.7000 351° North 294 338 13,600  Level Denver TRACON
Tue 12:22:56 AM 40.3333 -104.7333 346° North 317 365 16,100 1,909 Climbing Denver TRACON
Tue 12:23:00 AM 40.3385 -105.2178 346° North  Level Estimated
Tue 12:24:14 AM 40.4428 -104.7594 350° North 338 389 17,800  Level Denver Center
Tue 12:25:15 AM 40.5361 -104.7853 348° North 346 398 19,300 1,426 Climbing Denver Center
Tue 12:26:16 AM 40.6314 -104.8094 349° North 347 399 20,700 1,230 Climbing Denver Center
Tue 12:27:17 AM 40.7356 -104.8383 348° North 355 409 21,800 1,041 Climbing Denver Center
Tue 12:28:17 AM 40.8192 -104.8644 347° North 349 402 22,800 1,091 Climbing Denver Center
Tue 12:29:18 AM 40.9117 -104.9097 340° North 354 407 24,000 1,131 Climbing Denver Center
Tue 12:30:19 AM 41.0097 -104.9750 333° Northwest 355 409 25,100 934 Climbing Denver Center
Tue 12:31:20 AM 41.0772 -105.0653 315° West 361 415 25,900 836 Climbing Denver Center
Tue 12:32:21 AM 41.1542 -105.1669 315° West 353 406 26,800 793 Climbing Denver Center
Tue 12:33:21 AM 41.2217 -105.2561 315° West 357 411 27,500 595 Climbing Denver Center
Tue 12:34:22 AM 41.2892 -105.3469 315° West 360 414 28,000 541 Climbing Denver Center
Tue 12:35:23 AM 41.3581 -105.4381 315° West 364 419 28,600 738 Climbing Denver Center
Tue 12:36:24 AM 41.4367 -105.5456 314° West 363 418 29,500 843 Climbing Denver Center
Tue 12:37:24 AM 41.5025 -105.6325 315° West 352 405 30,300 744 Climbing Denver Center
Tue 12:38:25 AM 41.5669 -105.7217 314° West 349 402 31,000 738 Climbing Denver Center
Tue 12:39:26 AM 41.6406 -105.8214 315° West 340 391 31,800 496 Climbing Denver Center
Tue 12:40:26 AM 41.7039 -105.9067 315° West 338 389 32,000 99 Climbing Denver Center
Tue 12:41:27 AM 41.7678 -105.9953 314° West 341 392 32,000  Level Denver Center
Tue 12:42:28 AM 41.8461 -106.1014 315° West 356 410 32,000  Level Denver Center
Tue 12:43:29 AM 41.9133 -106.1942 314° West 361 415 32,000  Level Denver Center
Tue 12:44:29 AM 41.9806 -106.2881 314° West 363 418 32,000  Level Denver Center
Tue 12:45:30 AM 42.0619 -106.3981 315° West 368 423 32,000  Level Denver Center
Tue 12:46:31 AM 42.1275 -106.4933 313° West 364 419 32,000  Level Denver Center
Tue 12:47:31 AM 42.1994 -106.5925 314° West 373 429 32,000  Level Denver Center
Tue 12:48:32 AM 42.2808 -106.7061 314° West 378 435 32,000  Level Denver Center
Tue 12:49:33 AM 42.3497 -106.8031 314° West 375 432 32,000  Level Denver Center
Tue 12:50:33 AM 42.4208 -106.9014 314° West 380 437 32,000  Level Denver Center
Tue 12:51:34 AM 42.5011 -107.0175 313° West 381 438 32,000  Level Denver Center
Tue 12:52:34 AM 42.5719 -107.1156 314° West 381 438 32,000  Level Denver Center
Tue 12:53:35 AM 42.6403 -107.2175 312° West 382 440 32,000  Level Denver Center
Tue 12:54:36 AM 42.7233 -107.3319 315° West 381 438 32,000  Level Denver Center
Tue 12:55:36 AM 42.7936 -107.4314 314° West 381 438 32,000  Level Denver Center
Tue 12:56:37 AM 42.8631 -107.5331 313° West 383 441 32,000  Level Denver Center
Tue 12:57:37 AM 42.9336 -107.6344 314° West 386 444 32,000  Level Salt Lake Center
Tue 12:58:38 AM 43.0058 -107.7425 312° West 393 452 32,000  Level Salt Lake Center
Tue 12:59:38 AM 43.0794 -107.8486 314° West 386 444 32,000  Level Salt Lake Center
Tue 01:00:39 AM 43.1669 -107.9778 313° West 386 444 32,000  Level Salt Lake Center
Tue 01:01:40 AM 43.2408 -108.0867 313° West 391 450 32,000  Level Salt Lake Center
Tue 01:02:41 AM 43.3139 -108.1936 313° West 386 444 32,000  Level Salt Lake Center
Tue 01:03:41 AM 43.3861 -108.3014 313° West 385 443 32,000  Level Salt Lake Center
Tue 01:04:42 AM 43.4586 -108.4097 313° West 385 443 32,000  Level Salt Lake Center
Tue 01:05:43 AM 43.5325 -108.5206 313° West 392 451 32,000  Level Salt Lake Center
Tue 01:06:43 AM 43.6047 -108.6283 313° West 386 444 32,000  Level Salt Lake Center
Tue 01:07:44 AM 43.6772 -108.7375 313° West 386 444 32,000  Level Salt Lake Center
Tue 01:08:45 AM 43.7500 -108.8458 313° West 384 442 32,000  Level Salt Lake Center
Tue 01:09:45 AM 43.8231 -108.9558 313° West 386 444 32,000  Level Salt Lake Center
Tue 01:10:46 AM 43.8958 -109.0661 313° West 387 445 32,000  Level Salt Lake Center
Tue 01:11:47 AM 43.9683 -109.1767 312° West 387 445 32,000  Level Salt Lake Center
Tue 01:12:47 AM 44.0411 -109.2883 312° West 390 449 32,000  Level Salt Lake Center
Tue 01:13:48 AM 44.1142 -109.4006 312° West 391 450 32,000  Level Salt Lake Center
Tue 01:14:49 AM 44.1897 -109.5119 313° West 392 451 32,000  Level Salt Lake Center
Tue 01:15:49 AM 44.2697 -109.6375 312° West 390 449 32,000  Level Salt Lake Center
Tue 01:16:50 AM 44.3381 -109.7436 312° West 387 445 32,000  Level Salt Lake Center
Tue 01:17:50 AM 44.4047 -109.8486 312° West 381 438 32,000  Level Salt Lake Center
Tue 01:18:51 AM 44.4831 -109.9719 312° West 379 436 32,000  Level Salt Lake Center
Tue 01:19:51 AM 44.5503 -110.0783 312° West 381 438 32,000  Level Salt Lake Center
Tue 01:20:52 AM 44.6147 -110.1828 311° West 375 432 32,000  Level Salt Lake Center
Tue 01:21:53 AM 44.6936 -110.3078 312° West 384 442 32,000  Level Salt Lake Center
Tue 01:22:53 AM 44.7614 -110.4153 312° West 387 445 32,000  Level Salt Lake Center
Tue 01:23:54 AM 44.8283 -110.5217 312° West 383 441 32,000  Level Salt Lake Center
Tue 01:24:54 AM 44.9075 -110.6497 311° West 389 448 32,000  Level Salt Lake Center
Tue 01:25:55 AM 44.9758 -110.7581 312° West 388 447 32,000  Level Salt Lake Center
Tue 01:26:56 AM 45.0442 -110.8683 311° West 391 450 32,000  Level Salt Lake Center
Tue 01:27:56 AM 45.1244 -110.9994 311° West 392 451 32,000  Level Salt Lake Center
Tue 01:28:57 AM 45.1922 -111.1086 311° West 393 452 32,000  Level Salt Lake Center
Tue 01:29:57 AM 45.2653 -111.2311 310° West 398 458 32,000  Level Salt Lake Center
Tue 01:30:58 AM 45.3397 -111.3528 311° West 400 460 32,000  Level Salt Lake Center
Tue 01:31:58 AM 45.4128 -111.4764 310° West 400 460 32,000  Level Salt Lake Center
Tue 01:32:59 AM 45.4872 -111.5994 311° West 402 463 32,000  Level Salt Lake Center
Tue 01:34:00 AM 45.5614 -111.7242 310° West 403 464 32,000  Level Salt Lake Center
Tue 01:35:00 AM 45.6303 -111.8386 311° West 403 464 32,000  Level Salt Lake Center
Tue 01:36:01 AM 45.7042 -111.9644 310° West 405 466 32,000  Level Salt Lake Center
Tue 01:37:01 AM 45.7783 -112.0914 310° West 407 468 32,000  Level Salt Lake Center
Tue 01:38:02 AM 45.8531 -112.2181 310° West 408 470 32,000  Level Salt Lake Center
Tue 01:39:02 AM 45.9275 -112.3461 310° West 410 472 32,000  Level Salt Lake Center
Tue 01:40:03 AM 46.0025 -112.4744 310° West 412 474 32,000  Level Salt Lake Center
Tue 01:41:03 AM 46.0747 -112.6058 308° West 412 474 32,000  Level Salt Lake Center
Tue 01:42:04 AM 46.1233 -112.7461 297° West 415 478 32,000  Level Salt Lake Center
Tue 01:43:04 AM 46.1781 -112.8972 298° West 417 480 32,000  Level Salt Lake Center
Tue 01:44:05 AM 46.2314 -113.0497 297° West 419 482 32,000 -1,041 Level Salt Lake Center
Tue 01:45:05 AM 46.2897 -113.2025 299° West 426 490 29,900 -1,983 Descending Salt Lake Center
Tue 01:46:06 AM 46.3367 -113.3294 298° West 422 486 28,000 -1,884 Descending Salt Lake Center
Tue 01:47:06 AM 46.3903 -113.4781 298° West 417 480 26,100 -1,934 Descending Salt Lake Center
Tue 01:48:07 AM 46.4442 -113.6292 297° West 422 486 24,100 -2,033 Descending Salt Lake Center
Tue 01:49:07 AM 46.4978 -113.7833 297° West 427 491 22,000 -2,182 Descending Salt Lake Center
Tue 01:50:08 AM 46.5625 -113.9656 297° West 426 490 19,700 -2,132 Descending Salt Lake Center
Tue 01:51:08 AM 46.6128 -114.1133 296° West 412 474 17,700 -1,736 Descending Salt Lake Center
Tue 01:52:09 AM 46.6633 -114.2567 297° West 399 459 16,200 -1,785 Descending Salt Lake Center
Tue 01:53:09 AM 46.7108 -114.3969 296° West 387 445 14,100 -1,983 Descending Salt Lake Center
Tue 01:54:10 AM 46.7556 -114.5267 297° West 363 418 12,200 -992 Descending Salt Lake Center
Tue 01:55:10 AM 46.7925 -114.6339 297° West 292 336 12,100 -50 Descending Salt Lake Center
Tue 01:56:10 AM 46.8481 -114.6769 332° Northwest 233 268 12,100  Level Salt Lake Center
Tue 01:57:11 AM 46.9175 -114.6861 355° North 248 285 12,100 -248 Level Salt Lake Center
Tue 01:58:11 AM 46.9853 -114.6928 356° North 245 282 11,600 -744 Descending Salt Lake Center
Tue 01:59:12 AM 47.0561 -114.6561 19° North 251 289 10,600 -545 Descending Salt Lake Center
Tue 02:00:12 AM 47.1169 -114.6078 28° Northeast 249 287 10,500 -50 Descending Salt Lake Center
Tue 02:01:13 AM 47.1508 -114.5375 55° Northeast 230 265 10,500 -397 Level Salt Lake Center
Tue 02:02:13 AM 47.1308 -114.4589 110° East 213 245 9,700 -1,050 Descending Salt Lake Center
Tue 02:03:13 AM 47.0908 -114.3967 133° Southeast 210 242 8,400 -1,140 Descending Salt Lake Center
Tue 02:04:14 AM 47.0572 -114.3350 129° Southeast 197 227 7,400 -984 Descending Salt Lake Center
Tue 02:05:15 AM 47.0236 -114.2778 131° Southeast 187 215 6,400 -942 Descending Salt Lake Center
Tue 02:06:15 AM 46.9956 -114.2281 130° Southeast 165 190 5,500 -850 Descending Salt Lake Center
Tue 02:07:15 AM 46.9678 -114.1814 131° Southeast 156 180 4,700 -800 Descending Salt Lake Center
Tue 02:08:15 AM 46.9433 -114.1386 130° Southeast 142 163 3,900 -694 Descending Salt Lake Center
Tue 02:09:16 AM 46.9217 -114.1019 131° Southeast 140 161 3,300 -590 Descending Salt Lake Center
Tue 02:11:00 AM 46.9163 -114.0906 132° Southeast  Level Estimated

Login

Don't have an account? Register now (free) for customized features, flight alerts, and more!